createdAt,value
2016-04-14T05:08:49.935Z,14
2016-04-14T05:09:08.187Z,13
2016-04-14T05:09:26.484Z,134
2016-04-14T05:09:44.749Z,159
2016-04-14T05:10:03.019Z,154
2016-04-14T05:10:21.300Z,149
2016-04-14T05:10:39.566Z,144
2016-04-14T05:10:57.896Z,143
2016-04-14T05:11:15.958Z,143
2016-04-14T05:11:34.224Z,145
2016-04-14T05:11:52.493Z,146
2016-04-14T05:12:10.758Z,144
2016-04-14T05:12:29.040Z,141
2016-04-14T05:12:47.290Z,140
2016-04-14T05:13:05.588Z,134
2016-04-14T05:13:23.853Z,130
2016-04-14T05:13:42.260Z,132
2016-04-14T05:14:00.572Z,138
2016-04-14T05:14:18.854Z,141
2016-04-14T05:14:37.119Z,137
2016-04-14T05:14:55.447Z,136
2016-04-14T05:15:13.729Z,136
2016-04-14T05:15:31.994Z,141
2016-04-14T05:15:50.276Z,149
2016-04-14T05:16:08.588Z,147
2016-04-14T05:16:26.869Z,140
2016-04-14T05:16:45.135Z,141
2016-04-14T05:17:03.433Z,141
2016-04-14T05:17:21.714Z,135
2016-04-14T05:17:39.980Z,132
2016-04-14T05:17:58.267Z,130
2016-04-14T05:18:16.548Z,129
2016-04-14T05:18:34.814Z,122
2016-04-14T05:18:53.115Z,119
2016-04-14T05:19:11.381Z,119
2016-04-14T05:19:29.646Z,122
2016-04-14T05:19:47.912Z,123
2016-04-14T05:20:06.055Z,125
2016-04-14T05:20:24.336Z,131
2016-04-14T05:20:42.602Z,142
2016-04-14T05:21:00.902Z,149
2016-04-14T05:21:19.168Z,152
2016-04-14T05:21:37.433Z,155
2016-04-14T05:21:55.734Z,149
2016-04-14T05:22:13.999Z,146
2016-04-14T05:22:32.265Z,151
2016-04-14T05:22:50.530Z,157
2016-04-14T05:23:08.828Z,160
2016-04-14T05:23:27.093Z,155
2016-04-14T05:23:45.375Z,150
2016-04-14T05:24:03.664Z,147
2016-04-14T05:24:21.929Z,149
2016-04-14T05:24:40.211Z,155
2016-04-14T05:24:58.484Z,160
2016-04-14T05:25:16.766Z,157
2016-04-14T05:25:34.875Z,156
2016-04-14T05:25:53.133Z,157
2016-04-14T05:26:11.258Z,158
2016-04-14T05:26:29.524Z,159
2016-04-14T05:26:47.789Z,159
2016-04-14T05:27:06.064Z,161
2016-04-14T05:27:24.345Z,161
2016-04-14T05:27:42.611Z,160
2016-04-14T05:28:00.884Z,160
2016-04-14T05:28:19.150Z,164
2016-04-14T05:28:37.416Z,164
2016-04-14T05:28:55.686Z,165
2016-04-14T05:29:13.967Z,164
2016-04-14T05:29:32.249Z,162
2016-04-14T05:29:50.530Z,158
2016-04-14T05:30:08.800Z,158
2016-04-14T05:30:27.081Z,160
2016-04-14T05:30:45.362Z,160
2016-04-14T05:31:03.618Z,158
2016-04-14T05:31:21.915Z,156
2016-04-14T05:31:40.181Z,155
2016-04-14T05:31:58.451Z,155
2016-04-14T05:32:16.732Z,153
2016-04-14T05:32:34.998Z,152
2016-04-14T05:32:53.268Z,148
2016-04-14T05:33:11.533Z,143
2016-04-14T05:33:29.799Z,135
2016-04-14T05:33:48.080Z,134
2016-04-14T05:34:06.380Z,136
2016-04-14T05:34:24.646Z,135
2016-04-14T05:34:42.927Z,136
2016-04-14T05:35:01.197Z,137
2016-04-14T05:35:19.462Z,143
2016-04-14T05:35:37.743Z,142
2016-04-14T05:35:56.013Z,139
2016-04-14T05:36:14.279Z,135
2016-04-14T05:36:32.560Z,139
2016-04-14T05:36:50.826Z,146
2016-04-14T05:37:09.094Z,148
2016-04-14T05:37:27.375Z,148
2016-04-14T05:37:45.485Z,149
2016-04-14T05:38:03.753Z,149
2016-04-14T05:38:22.019Z,152
2016-04-14T05:38:40.300Z,153
2016-04-14T05:38:58.569Z,146
2016-04-14T05:39:16.850Z,142
2016-04-14T05:39:35.131Z,139
2016-04-14T05:39:53.400Z,135
2016-04-14T05:40:11.650Z,135
2016-04-14T05:40:29.931Z,142
2016-04-14T05:40:48.197Z,144
2016-04-14T05:41:06.371Z,145
2016-04-14T05:41:24.605Z,143
2016-04-14T05:41:42.886Z,141
2016-04-14T05:42:01.155Z,139
2016-04-14T05:42:19.436Z,136
2016-04-14T05:42:37.702Z,136
2016-04-14T05:42:55.970Z,136
2016-04-14T05:43:14.251Z,133
2016-04-14T05:43:32.532Z,140
2016-04-14T05:43:50.798Z,148
2016-04-14T05:44:09.066Z,143
2016-04-14T05:44:27.348Z,136
2016-04-14T05:44:45.613Z,136
2016-04-14T05:45:03.897Z,143
2016-04-14T05:45:22.163Z,145
2016-04-14T05:45:40.429Z,142
2016-04-14T05:45:58.729Z,142
2016-04-14T05:46:17.010Z,139
2016-04-14T05:46:35.291Z,146
2016-04-14T05:46:53.560Z,152
2016-04-14T05:47:11.841Z,150
2016-04-14T05:47:30.107Z,149
2016-04-14T05:47:48.232Z,150
2016-04-14T05:48:06.515Z,150
2016-04-14T05:48:24.780Z,151
2016-04-14T05:48:43.077Z,154
2016-04-14T05:49:01.346Z,156
2016-04-14T05:49:19.627Z,155
2016-04-14T05:49:37.908Z,156
2016-04-14T05:49:56.177Z,161
2016-04-14T05:50:14.458Z,163
2016-04-14T05:50:32.724Z,165
2016-04-14T05:50:51.021Z,167
2016-04-14T05:51:09.288Z,174
2016-04-14T05:51:27.554Z,180
2016-04-14T05:51:45.835Z,184
2016-04-14T05:52:04.120Z,181
2016-04-14T05:52:22.370Z,186
2016-04-14T05:52:40.666Z,192
2016-04-14T05:52:58.779Z,190
2016-04-14T05:53:17.060Z,189
2016-04-14T05:53:35.341Z,192
2016-04-14T05:53:53.609Z,192
2016-04-14T05:54:11.875Z,193
2016-04-14T05:54:30.140Z,191
2016-04-14T05:54:48.421Z,188
2016-04-14T05:55:06.706Z,184
2016-04-14T05:55:24.971Z,184
2016-04-14T05:55:43.253Z,184
2016-04-14T05:56:01.520Z,180
2016-04-14T05:56:19.630Z,183
2016-04-14T05:56:37.895Z,184
2016-04-14T05:56:56.179Z,181
2016-04-14T05:57:14.445Z,181
2016-04-14T05:57:32.726Z,180
2016-04-14T05:57:50.976Z,177
2016-04-14T05:58:09.245Z,175
2016-04-14T05:58:27.526Z,173
2016-04-14T05:58:45.792Z,179
2016-04-14T05:59:04.060Z,178
2016-04-14T05:59:22.342Z,175
2016-04-14T05:59:40.623Z,169
2016-04-14T05:59:58.907Z,178
2016-04-14T06:00:17.173Z,191
2016-04-14T06:00:35.454Z,194
2016-04-14T06:00:53.737Z,189
2016-04-14T06:01:11.987Z,184
2016-04-14T06:01:30.253Z,192
2016-04-14T06:01:48.519Z,195
2016-04-14T06:02:06.647Z,199
2016-04-14T06:02:24.912Z,196
2016-04-14T06:02:43.178Z,194
2016-04-14T06:03:01.446Z,190
2016-04-14T06:03:19.728Z,188
2016-04-14T06:03:37.993Z,186
2016-04-14T06:03:56.261Z,184
2016-04-14T06:04:14.542Z,183
2016-04-14T06:04:32.808Z,180
2016-04-14T06:04:51.089Z,178
2016-04-14T06:05:09.358Z,176
2016-04-14T06:05:27.639Z,178
2016-04-14T06:05:45.905Z,180
2016-04-14T06:06:04.172Z,181
2016-04-14T06:06:22.438Z,184
2016-04-14T06:06:40.719Z,182
2016-04-14T06:06:58.988Z,182
2016-04-14T06:07:17.269Z,183
2016-04-14T06:07:35.550Z,183
2016-04-14T06:07:53.818Z,182
2016-04-14T06:08:12.083Z,184
2016-04-14T06:08:30.349Z,186
2016-04-14T06:08:48.630Z,191
2016-04-14T06:09:06.915Z,195
2016-04-14T06:09:25.165Z,194
2016-04-14T06:09:43.446Z,195
2016-04-14T06:10:01.714Z,198
2016-04-14T06:10:19.980Z,201
2016-04-14T06:10:38.230Z,202
2016-04-14T06:10:56.529Z,202
2016-04-14T06:11:14.888Z,178
2016-04-14T06:11:33.060Z,175
2016-04-14T06:11:51.326Z,169
2016-04-14T06:12:09.594Z,173
2016-04-14T06:12:27.876Z,179
2016-04-14T06:12:46.141Z,181
2016-04-14T06:13:04.410Z,184
2016-04-14T06:13:22.676Z,186
2016-04-14T06:13:40.957Z,188
2016-04-14T06:13:59.240Z,189
2016-04-14T06:14:17.506Z,188
2016-04-14T06:14:35.787Z,187
2016-04-14T06:14:54.071Z,187
2016-04-14T06:15:12.352Z,187
2016-04-14T06:15:30.618Z,183
2016-04-14T06:15:48.884Z,181
2016-04-14T06:16:07.199Z,185
2016-04-14T06:16:25.465Z,188
2016-04-14T06:16:43.746Z,191
2016-04-14T06:17:02.030Z,184
2016-04-14T06:17:20.296Z,186
2016-04-14T06:17:38.577Z,191
2016-04-14T06:17:56.845Z,192
2016-04-14T06:18:15.110Z,189
2016-04-14T06:18:33.392Z,189
2016-04-14T06:18:51.657Z,197
2016-04-14T06:19:09.943Z,200
2016-04-14T06:19:28.208Z,203
2016-04-14T06:19:46.474Z,198
2016-04-14T06:20:04.585Z,198
2016-04-14T06:20:22.866Z,192
2016-04-14T06:20:41.132Z,188
2016-04-14T06:20:59.416Z,190
2016-04-14T06:21:17.682Z,195
2016-04-14T06:21:35.963Z,191
2016-04-14T06:21:54.231Z,189
2016-04-14T06:22:12.496Z,188
2016-04-14T06:22:30.793Z,186
2016-04-14T06:22:49.059Z,188
2016-04-14T06:23:07.343Z,189
2016-04-14T06:23:25.515Z,191
2016-04-14T06:23:43.796Z,192
2016-04-14T06:24:02.065Z,189
2016-04-14T06:24:20.362Z,184
2016-04-14T06:24:38.643Z,192
2016-04-14T06:24:56.927Z,200
2016-04-14T06:25:15.224Z,196
2016-04-14T06:25:33.490Z,192
2016-04-14T06:25:51.771Z,187
2016-04-14T06:26:10.071Z,188
2016-04-14T06:26:28.165Z,190
2016-04-14T06:26:46.446Z,197
2016-04-14T06:27:04.620Z,196
2016-04-14T06:27:22.901Z,199
2016-04-14T06:27:41.167Z,200
2016-04-14T06:27:59.435Z,198
2016-04-14T06:28:17.717Z,200
2016-04-14T06:28:35.982Z,199
2016-04-14T06:28:54.266Z,201
2016-04-14T06:29:12.548Z,209
2016-04-14T06:29:30.829Z,213
2016-04-14T06:29:49.079Z,210
2016-04-14T06:30:07.378Z,204
2016-04-14T06:30:25.643Z,207
2016-04-14T06:30:43.925Z,208
2016-04-14T06:31:02.178Z,200
2016-04-14T06:31:20.443Z,191
2016-04-14T06:31:38.725Z,189
2016-04-14T06:31:57.008Z,192
2016-04-14T06:32:15.273Z,195
2016-04-14T06:32:33.555Z,199
2016-04-14T06:32:51.820Z,198
2016-04-14T06:33:10.105Z,195
2016-04-14T06:33:28.386Z,201
2016-04-14T06:33:46.667Z,205
2016-04-14T06:34:04.935Z,206
2016-04-14T06:34:23.216Z,214
2016-04-14T06:34:41.482Z,219
2016-04-14T06:34:59.766Z,217
2016-04-14T06:35:18.031Z,219
2016-04-14T06:35:36.297Z,215
2016-04-14T06:35:54.566Z,223
2016-04-14T06:36:12.847Z,220
2016-04-14T06:36:31.113Z,207
2016-04-14T06:36:49.394Z,204
2016-04-14T06:37:07.661Z,206
2016-04-14T06:37:25.927Z,213
2016-04-14T06:37:44.208Z,223
2016-04-14T06:38:02.477Z,217
2016-04-14T06:38:20.102Z,210
2016-04-14T06:38:38.383Z,205
2016-04-14T06:38:56.652Z,208
2016-04-14T06:39:14.933Z,210
2016-04-14T06:39:33.214Z,215
2016-04-14T06:39:51.167Z,211
2016-04-14T06:40:09.452Z,214
2016-04-14T06:40:27.749Z,214
2016-04-14T06:40:46.014Z,214
2016-04-14T06:41:04.298Z,218
2016-04-14T06:41:22.439Z,218
2016-04-14T06:41:40.689Z,217
2016-04-14T06:41:58.972Z,217
2016-04-14T06:42:16.957Z,217
2016-04-14T06:42:35.222Z,214
2016-04-14T06:42:53.488Z,214
2016-04-14T06:43:11.757Z,216
2016-04-14T06:43:30.038Z,209
2016-04-14T06:43:48.303Z,212
2016-04-14T06:44:06.571Z,213
2016-04-14T06:44:24.837Z,209
2016-04-14T06:44:43.102Z,207
2016-04-14T06:45:01.387Z,208
2016-04-14T06:45:19.652Z,211
2016-04-14T06:45:37.777Z,212
2016-04-14T06:45:55.952Z,216
2016-04-14T06:46:14.186Z,236
2016-04-14T06:46:32.436Z,229
2016-04-14T06:46:50.718Z,215
2016-04-14T06:47:09.002Z,206
2016-04-14T06:47:27.268Z,200
2016-04-14T06:47:45.533Z,193
2016-04-14T06:48:03.801Z,186
2016-04-14T13:06:29.632Z,388
2016-04-14T13:06:47.898Z,430
2016-04-14T13:07:06.166Z,433
2016-04-14T13:07:24.431Z,435
2016-04-14T13:07:42.697Z,433
2016-04-14T13:08:00.981Z,429
2016-04-14T13:08:19.278Z,424
2016-04-14T13:08:37.575Z,421
2016-04-14T13:08:55.528Z,413
2016-04-14T13:09:13.658Z,415
2016-04-14T13:09:31.799Z,418
2016-04-14T13:09:49.767Z,420
2016-04-14T13:10:08.036Z,420
2016-04-14T13:10:32.223Z,419
2016-04-14T13:10:50.505Z,420
2016-04-14T13:11:08.788Z,417
2016-04-14T13:11:27.143Z,414
2016-04-14T13:11:45.409Z,410
2016-04-14T13:12:03.678Z,409
2016-04-14T13:12:21.818Z,411
2016-04-14T13:12:39.928Z,418
2016-04-14T13:12:58.195Z,422
2016-04-14T13:13:16.476Z,429
2016-04-14T13:13:34.758Z,431
2016-04-14T13:13:53.039Z,429
2016-04-14T13:14:11.308Z,422
2016-04-14T13:14:29.417Z,415
2016-04-14T13:14:47.683Z,412
2016-04-14T13:15:05.967Z,419
2016-04-14T13:15:24.248Z,433
2016-04-14T13:15:42.404Z,450
2016-04-14T13:16:00.641Z,460
2016-04-14T13:16:18.906Z,467
2016-04-14T13:16:37.188Z,473
2016-04-14T13:16:55.469Z,479
2016-04-14T13:17:13.769Z,483
2016-04-14T13:17:32.019Z,483
2016-04-14T13:17:50.300Z,484
2016-04-14T13:18:08.568Z,478
2016-04-14T13:18:26.849Z,470
2016-04-14T13:18:45.130Z,463
2016-04-14T13:19:03.383Z,453
2016-04-14T13:19:21.664Z,444
2016-04-14T13:19:39.946Z,438
2016-04-14T13:19:58.214Z,430
2016-04-14T13:20:16.464Z,424
2016-04-14T13:20:34.761Z,423
2016-04-14T13:20:53.027Z,422
2016-04-14T13:21:11.294Z,422
2016-04-14T13:21:29.576Z,423
2016-04-14T13:21:47.857Z,426
2016-04-14T13:22:06.126Z,428
2016-04-14T13:22:24.392Z,432
2016-04-14T13:22:42.658Z,436
2016-04-14T13:23:00.925Z,436
2016-04-14T13:23:19.207Z,440
2016-04-14T13:23:37.472Z,442
2016-04-14T13:23:55.769Z,439
2016-04-14T13:24:14.038Z,439
2016-04-14T13:24:32.319Z,437
2016-04-14T13:24:50.585Z,438
2016-04-14T13:25:08.869Z,443
2016-04-14T13:25:27.150Z,452
2016-04-14T13:25:45.416Z,460
2016-04-14T13:26:03.684Z,464
2016-04-14T13:26:21.966Z,463
2016-04-14T13:26:40.231Z,461
2016-04-14T13:26:58.514Z,459
2016-04-14T13:27:16.796Z,452
2016-04-14T13:27:35.061Z,448
2016-04-14T13:27:53.327Z,447
2016-04-14T13:28:11.596Z,449
2016-04-14T13:28:29.861Z,445
2016-04-14T13:28:48.142Z,442
2016-04-14T13:29:06.410Z,441
2016-04-14T13:29:24.691Z,439
2016-04-14T13:29:42.957Z,438
2016-04-14T13:30:01.226Z,435
2016-04-14T13:30:19.507Z,426
2016-04-14T13:30:37.788Z,419
2016-04-14T13:30:56.054Z,407
2016-04-14T13:31:14.337Z,404
2016-04-14T13:31:32.603Z,403
2016-04-14T13:31:50.868Z,407
2016-04-14T13:32:09.153Z,408
2016-04-14T13:32:27.419Z,409
2016-04-14T13:32:45.700Z,411
2016-04-14T13:33:03.968Z,410
2016-04-14T13:33:22.249Z,407
2016-04-14T13:33:40.515Z,404
2016-04-14T13:33:58.815Z,393
2016-04-14T13:34:17.080Z,379
2016-04-14T13:34:35.346Z,365
2016-04-14T13:34:53.612Z,372
2016-04-14T13:35:11.880Z,386
2016-04-14T13:35:30.161Z,394
2016-04-14T13:35:48.427Z,395
2016-04-14T13:36:06.695Z,390
2016-04-14T13:36:24.976Z,388
2016-04-14T13:36:43.242Z,387
2016-04-14T13:37:01.510Z,385
2016-04-14T13:37:19.791Z,381
2016-04-14T13:37:38.057Z,378
2016-04-14T13:37:56.338Z,379
2016-04-14T13:38:14.622Z,373
2016-04-14T13:38:32.747Z,370
2016-04-14T13:38:51.028Z,365
2016-04-14T13:39:09.296Z,365
2016-04-14T13:39:27.578Z,367
2016-04-14T13:39:45.843Z,362
2016-04-14T13:40:04.128Z,350
2016-04-14T13:40:22.393Z,332
2016-04-14T13:40:40.503Z,322
2016-04-14T13:40:58.787Z,325
2016-04-14T13:41:17.068Z,328
2016-04-14T13:41:35.349Z,329
2016-04-14T13:41:53.631Z,343
2016-04-14T13:42:11.915Z,360
2016-04-14T13:42:30.196Z,371
2016-04-14T13:42:48.305Z,377
2016-04-14T13:43:06.573Z,382
2016-04-14T13:43:24.854Z,380
2016-04-14T13:43:43.120Z,367
2016-04-14T13:44:01.389Z,356
2016-04-14T13:44:19.654Z,364
2016-04-14T13:44:37.920Z,377
2016-04-14T13:44:56.201Z,384
2016-04-14T13:45:14.469Z,375
2016-04-14T13:45:32.594Z,364
2016-04-14T13:45:50.859Z,351
2016-04-14T13:46:09.159Z,347
2016-04-14T13:46:27.425Z,343
2016-04-14T13:46:45.690Z,354
2016-04-14T13:47:03.974Z,369
2016-04-14T13:47:22.083Z,384
2016-04-14T13:47:40.349Z,396
2016-04-14T13:47:58.649Z,407
2016-04-14T13:48:16.914Z,420
2016-04-14T13:48:35.180Z,426
2016-04-14T13:48:53.445Z,435
2016-04-14T13:49:11.730Z,440
2016-04-14T13:49:29.995Z,442
2016-04-14T13:49:48.277Z,431
2016-04-14T13:50:06.545Z,419
2016-04-14T13:50:24.826Z,408
2016-04-14T13:50:43.092Z,405
2016-04-14T13:51:01.361Z,413
2016-04-14T13:51:19.626Z,414
2016-04-14T13:51:37.923Z,429
2016-04-14T13:51:56.189Z,35
2016-04-14T13:52:14.441Z,324
2016-04-14T13:52:32.722Z,597
2016-04-14T13:52:50.972Z,633
2016-04-14T13:53:09.256Z,623
2016-04-14T13:53:27.538Z,619
2016-04-14T13:53:45.803Z,615
2016-04-14T13:54:04.071Z,598
2016-04-14T13:54:22.352Z,612
2016-04-14T13:54:40.618Z,613
2016-04-14T13:54:58.902Z,615
2016-04-14T13:55:17.168Z,614
2016-04-14T13:55:35.449Z,596
2016-04-14T13:55:53.714Z,604
2016-04-14T13:56:11.998Z,613
2016-04-14T13:56:30.263Z,617
2016-04-14T13:56:48.529Z,619
2016-04-14T13:57:06.813Z,622
2016-04-14T13:57:25.079Z,624
2016-04-14T13:57:43.032Z,624
2016-04-14T13:58:01.301Z,626
2016-04-14T13:58:19.582Z,625
2016-04-14T13:58:37.847Z,621
2016-04-14T13:58:56.129Z,617
2016-04-14T13:59:14.396Z,615
2016-04-14T13:59:32.678Z,609
2016-04-14T13:59:50.943Z,606
2016-04-14T14:00:09.213Z,604
2016-04-14T14:00:27.478Z,602
2016-04-14T14:00:45.744Z,603
2016-04-14T14:01:04.043Z,603
2016-04-14T14:01:22.293Z,602
2016-04-14T14:01:40.574Z,600
2016-04-14T14:01:58.843Z,597
2016-04-14T14:02:17.108Z,596
2016-04-14T14:02:35.358Z,595
2016-04-14T14:02:53.624Z,593
2016-04-14T14:03:11.892Z,592
2016-04-14T14:03:30.157Z,590
2016-04-14T14:03:48.423Z,589
2016-04-14T14:04:06.707Z,595
2016-04-14T14:04:24.973Z,594
2016-04-14T14:04:43.238Z,598
2016-04-14T14:05:01.523Z,600
2016-04-14T14:05:19.788Z,604
2016-04-14T14:05:38.054Z,607
2016-04-14T14:05:56.335Z,612
2016-04-14T14:06:14.619Z,616
2016-04-14T14:06:32.885Z,619
2016-04-14T14:06:51.135Z,621
2016-04-14T14:07:09.435Z,626
2016-04-14T14:07:27.685Z,630
2016-04-14T14:07:45.951Z,628
2016-04-14T14:08:04.235Z,634
2016-04-14T14:08:22.516Z,626
2016-04-14T14:37:10.182Z,580
2016-04-14T14:37:28.479Z,565
2016-04-14T14:37:46.729Z,551
2016-04-14T14:38:05.014Z,546
2016-04-14T14:38:23.279Z,562
2016-04-14T14:38:41.545Z,575
2016-04-14T14:38:59.831Z,583
2016-04-14T14:39:18.113Z,587
2016-04-14T14:39:36.363Z,590
2016-04-14T14:39:54.644Z,584
2016-04-14T14:40:12.928Z,581
2016-04-14T14:40:31.194Z,570
2016-04-14T14:40:49.491Z,557
2016-04-14T14:41:07.760Z,538
2016-04-14T14:41:26.057Z,517
2016-04-14T14:41:44.338Z,495
2016-04-14T14:42:02.623Z,482
2016-04-14T14:42:20.919Z,480
2016-04-14T14:42:39.185Z,476
2016-04-14T14:42:57.298Z,476
2016-04-14T14:43:15.580Z,474
2016-04-14T14:43:33.845Z,473
2016-04-14T14:43:52.111Z,474
2016-04-14T14:44:10.396Z,475
2016-04-14T14:44:28.646Z,477
2016-04-14T14:44:46.927Z,481
2016-04-14T14:45:05.212Z,490
2016-04-14T14:45:23.493Z,498
2016-04-14T14:45:41.790Z,505
2016-04-14T14:46:00.057Z,507
2016-04-14T14:46:18.354Z,498
2016-04-14T14:46:36.620Z,482
2016-04-14T14:46:54.886Z,465
2016-04-14T14:47:13.170Z,457
2016-04-14T14:47:31.435Z,453
2016-04-14T14:47:49.717Z,453
2016-04-14T14:48:08.001Z,457
2016-04-14T14:48:26.251Z,461
2016-04-14T14:48:44.532Z,458
2016-04-14T14:49:02.801Z,451
2016-04-14T14:49:21.098Z,446
2016-04-14T14:49:39.348Z,437
2016-04-14T14:49:57.616Z,436
2016-04-14T14:50:15.882Z,446
2016-04-14T14:50:34.163Z,470
2016-04-14T14:50:52.429Z,490
2016-04-14T14:51:10.728Z,494
2016-04-14T14:51:29.009Z,503
2016-04-14T14:51:47.275Z,509
2016-04-14T14:52:05.560Z,519
2016-04-14T14:52:23.841Z,528
2016-04-14T14:52:42.122Z,549
2016-04-14T14:53:00.406Z,560
2016-04-14T14:53:18.671Z,580
2016-04-14T14:53:36.984Z,596
2016-04-14T14:53:55.218Z,609
2016-04-14T14:54:13.502Z,619
2016-04-14T14:54:31.784Z,620
2016-04-14T14:54:50.080Z,617
2016-04-14T14:55:08.332Z,615
2016-04-14T14:55:26.614Z,613
2016-04-14T14:55:44.895Z,607
2016-04-14T14:56:03.164Z,603
2016-04-14T14:56:21.429Z,609
2016-04-14T14:56:39.851Z,591
2016-04-14T14:56:57.995Z,588
2016-04-14T14:57:16.276Z,588
2016-04-14T14:57:34.542Z,585
2016-04-14T14:57:52.698Z,583
2016-04-14T14:58:10.935Z,578
2016-04-14T14:58:29.216Z,573
2016-04-14T14:58:47.498Z,568
2016-04-14T14:59:05.782Z,563
2016-04-14T14:59:24.079Z,556
2016-04-14T14:59:42.782Z,554
2016-04-14T15:00:00.440Z,552
2016-04-14T15:00:18.721Z,534
2016-04-14T15:00:37.003Z,526
2016-04-14T15:00:55.300Z,517
2016-04-14T15:01:13.599Z,506
2016-04-14T15:01:31.849Z,502
2016-04-14T15:01:50.131Z,508
2016-04-14T15:02:08.414Z,517
2016-04-14T15:02:26.680Z,523
2016-04-14T15:02:44.945Z,522
2016-04-14T15:03:03.245Z,519
2016-04-14T15:03:21.526Z,512
2016-04-14T15:03:39.636Z,504
2016-04-14T15:03:57.919Z,495
2016-04-14T15:04:16.028Z,493
2016-04-14T15:04:34.310Z,500
2016-04-14T15:04:52.575Z,510
2016-04-14T15:05:10.844Z,524
2016-04-14T15:05:29.109Z,534
2016-04-14T15:05:47.391Z,540
2016-04-14T15:06:05.659Z,547
2016-04-14T15:06:23.941Z,554
2016-04-14T15:06:42.206Z,561
2016-04-14T15:07:00.490Z,567
2016-04-14T15:07:18.756Z,573
2016-04-14T15:07:37.037Z,576
2016-04-14T15:07:55.319Z,580
2016-04-14T15:08:13.587Z,584
2016-04-14T15:08:31.853Z,587
2016-04-14T15:08:50.134Z,591
2016-04-14T15:09:08.403Z,587
2016-04-14T15:09:26.700Z,593
2016-04-14T15:09:44.965Z,597
2016-04-14T15:10:03.233Z,604
2016-04-14T15:10:21.498Z,602
2016-04-14T15:10:39.123Z,602
2016-04-14T15:10:57.389Z,603
2016-04-14T15:11:15.658Z,604
2016-04-14T15:11:33.939Z,605
2016-04-14T15:11:52.189Z,605
2016-04-14T15:12:10.488Z,603
2016-04-14T15:12:28.753Z,601
2016-04-14T15:12:47.050Z,601
2016-04-14T15:13:05.194Z,604
2016-04-14T15:13:23.303Z,605
2016-04-14T15:13:41.569Z,604
2016-04-14T15:13:59.852Z,605
2016-04-14T15:14:18.102Z,604
2016-04-14T15:14:36.383Z,603
2016-04-14T15:14:54.649Z,600
2016-04-14T15:15:12.949Z,594
2016-04-14T15:15:31.215Z,589
2016-04-14T15:15:49.480Z,588
2016-04-14T15:16:07.796Z,590
2016-04-14T15:16:26.030Z,596
2016-04-14T15:16:44.343Z,601
2016-04-14T15:17:02.610Z,606
2016-04-14T15:17:20.907Z,608
2016-04-14T15:17:39.173Z,605
2016-04-14T15:17:57.438Z,603
2016-04-14T15:18:15.708Z,600
2016-04-14T15:18:34.005Z,598
2016-04-14T15:18:52.270Z,595
2016-04-14T15:19:10.554Z,591
2016-04-14T15:19:28.819Z,584
2016-04-14T15:19:47.116Z,583
2016-04-14T15:20:05.369Z,586
2016-04-14T15:20:23.650Z,587
2016-04-14T15:20:41.916Z,587
2016-04-14T15:21:00.215Z,587
2016-04-14T15:21:18.481Z,591
2016-04-14T15:21:36.762Z,596
2016-04-14T15:21:55.012Z,599
2016-04-14T15:22:13.280Z,598
2016-04-14T15:22:31.546Z,597
2016-04-14T15:22:49.843Z,592
2016-04-14T15:23:08.127Z,591
2016-04-14T15:23:26.377Z,585
2016-04-14T15:23:44.658Z,588
2016-04-14T15:24:02.943Z,587
2016-04-14T15:24:21.208Z,586
2016-04-14T15:24:39.474Z,582
2016-04-14T15:24:57.757Z,577
2016-04-14T15:25:16.038Z,569
2016-04-14T15:25:34.304Z,563
2016-04-14T15:25:52.585Z,559
2016-04-14T15:26:10.885Z,551
2016-04-14T15:26:29.151Z,545
2016-04-14T15:26:47.416Z,542
2016-04-14T15:27:05.685Z,543
2016-04-14T15:27:23.966Z,542
2016-04-14T15:27:42.232Z,542
2016-04-14T15:28:00.593Z,544
2016-04-14T15:28:18.625Z,549
2016-04-14T15:28:36.906Z,551
2016-04-14T15:28:55.171Z,554
2016-04-14T15:29:13.471Z,557
2016-04-14T15:29:31.737Z,561
2016-04-14T15:29:50.018Z,563
2016-04-14T15:30:08.301Z,565
2016-04-14T15:30:26.567Z,568
2016-04-14T15:30:44.848Z,567
2016-04-14T15:31:03.101Z,565
2016-04-14T15:31:21.383Z,564
2016-04-14T15:31:39.695Z,563
2016-04-14T15:31:57.964Z,563
2016-04-14T15:32:16.261Z,561
2016-04-14T15:32:34.511Z,561
2016-04-14T15:32:52.807Z,561
2016-04-14T15:33:11.076Z,559
2016-04-14T15:33:29.342Z,557
2016-04-14T15:33:47.451Z,555
2016-04-14T15:34:05.782Z,552
2016-04-14T15:34:24.001Z,548
2016-04-14T15:34:42.282Z,548
2016-04-14T15:35:01.315Z,551
2016-04-14T15:35:18.847Z,551
2016-04-14T15:35:37.128Z,549
2016-04-14T15:35:55.409Z,544
2016-04-14T15:36:13.678Z,540
2016-04-14T15:36:31.959Z,532
2016-04-14T15:36:50.225Z,527
2016-04-14T15:37:08.524Z,523
2016-04-14T15:37:26.774Z,517
2016-04-14T15:37:45.055Z,512
2016-04-14T15:38:03.323Z,507
2016-04-14T15:38:21.605Z,507
2016-04-14T15:38:39.870Z,505
2016-04-14T15:38:58.155Z,504
2016-04-14T15:39:16.420Z,503
2016-04-14T15:39:34.686Z,497
2016-04-14T15:39:52.967Z,490
2016-04-14T15:40:11.236Z,484
2016-04-14T15:40:29.517Z,479
2016-04-14T15:40:47.798Z,475
2016-04-14T15:41:06.097Z,475
2016-04-14T15:41:24.331Z,480
2016-04-14T15:41:42.613Z,478
2016-04-14T15:42:00.897Z,475
2016-04-14T15:42:19.225Z,471
2016-04-14T15:42:37.506Z,465
2016-04-14T15:42:55.803Z,457
2016-04-14T15:43:14.071Z,450
2016-04-14T15:43:32.961Z,446
2016-04-14T15:43:50.649Z,442
2016-04-14T15:44:08.933Z,438
2016-04-14T15:44:27.214Z,441
2016-04-14T15:44:45.480Z,440
2016-04-14T15:45:03.764Z,438
2016-04-14T15:45:22.014Z,438
2016-04-14T15:45:40.296Z,440
2016-04-14T15:45:58.564Z,443
2016-04-14T15:46:16.845Z,444
2016-04-14T15:46:35.158Z,448
2016-04-14T15:46:53.424Z,449
2016-04-14T15:47:11.707Z,454
2016-04-14T15:47:29.957Z,458
2016-04-14T15:47:48.222Z,461
2016-04-14T15:48:06.507Z,440
2016-04-14T15:48:24.804Z,446
2016-04-14T15:48:43.069Z,448
2016-04-14T15:49:01.338Z,449
2016-04-14T15:49:19.619Z,450
2016-04-14T15:49:37.885Z,450
2016-04-14T15:49:56.166Z,453
2016-04-14T15:50:14.466Z,456
2016-04-14T15:50:32.731Z,462
2016-04-14T15:50:51.013Z,463
2016-04-14T15:51:09.297Z,464
2016-04-14T15:51:27.578Z,469
2016-04-14T15:51:45.859Z,468
2016-04-14T15:52:04.143Z,467
2016-04-14T15:52:22.424Z,466
2016-04-14T15:52:40.721Z,465
2016-04-14T15:52:59.005Z,466
2016-04-14T15:53:17.130Z,465
2016-04-14T15:53:35.443Z,467
2016-04-14T15:53:53.693Z,467
2016-04-14T15:54:11.991Z,469
2016-04-14T15:54:30.241Z,467
2016-04-14T15:54:48.538Z,466
2016-04-14T15:55:06.823Z,464
2016-04-14T15:55:25.119Z,460
2016-04-14T15:55:43.385Z,460
2016-04-14T15:56:01.653Z,458
2016-04-14T15:56:19.934Z,457
2016-04-14T15:56:38.246Z,453
2016-04-14T15:56:56.496Z,451
2016-04-14T15:57:14.781Z,450
2016-04-14T15:57:33.046Z,447
2016-04-14T15:57:51.312Z,448
2016-04-14T15:58:09.674Z,451
2016-04-14T15:58:28.049Z,450
2016-04-14T15:58:46.159Z,448
2016-04-14T15:59:04.427Z,442
2016-04-14T15:59:22.709Z,436
2016-04-14T15:59:41.021Z,433
2016-04-14T15:59:59.290Z,432
2016-04-14T16:00:17.587Z,433
2016-04-14T16:00:35.868Z,434
2016-04-14T16:00:54.149Z,440
2016-04-14T16:01:12.401Z,446
2016-04-14T16:01:30.682Z,440
2016-04-14T16:01:48.964Z,438
2016-04-14T16:02:07.263Z,438
2016-04-14T16:02:25.545Z,443
2016-04-14T16:02:43.826Z,450
2016-04-14T16:03:02.094Z,460
2016-04-14T16:03:20.375Z,471
2016-04-14T16:03:38.640Z,482
2016-04-14T16:03:56.922Z,492
2016-04-14T16:04:15.206Z,498
2016-04-14T16:04:33.487Z,499
2016-04-14T16:04:51.768Z,497
2016-04-14T16:05:10.037Z,491
2016-04-14T16:05:28.318Z,485
2016-04-14T16:05:46.600Z,478
2016-04-14T16:06:04.883Z,468
2016-04-14T16:06:23.164Z,459
2016-04-14T16:06:41.445Z,452
2016-04-14T16:06:59.714Z,446